Time;durP1;ratioP1;P1;durP2;ratioP2;P2;SDS_P1;SDS_P2;PMS_P1;PMS_P2;Temp;Humidity;BMP_temperature;BMP_pressure;BME280_temperature;BME280_humidity;BME280_pressure;Samples;Min_cycle;Max_cycle;Signal;HPM_P1;HPM_P2
2022/01/08 00:01:45;;;;;;;;;;;;;;;;;;;;;
2022/01/08 00:04:37;;;;;;;9.07;4.45;;;;;;;-4.91;81.14;92260.06;5033064;28;20060;-89
2022/01/08 00:07:17;;;;;;;6.78;4.05;;;;;;;-4.58;81.57;92312.88;5014001;28;20034;-90
2022/01/08 00:10:03;;;;;;;;;;;;;;;;;;;;;
2022/01/08 00:12:34;;;;;;;12.30;5.55;;;;;;;-4.51;83.63;92300.88;5015847;28;20045;-89
2022/01/08 00:15:03;;;;;;;10.50;5.45;;;;;;;-4.78;83.65;92258.47;4998642;28;20498;-89
2022/01/08 00:17:39;;;;;;;10.70;5.13;;;;;;;-4.78;83.70;92253.38;5016866;28;20106;-90
2022/01/08 00:20:13;;;;;;;8.55;4.43;;;;;;;-4.55;83.04;92292.03;5033902;28;20042;-90
2022/01/08 00:22:45;;;;;;;7.53;4.22;;;;;;;-4.88;81.94;92249.44;5031449;28;20041;-90
2022/01/08 00:25:16;;;;;;;8.80;4.53;;;;;;;-4.82;82.49;92271.66;4998266;28;20438;-91
2022/01/08 00:28:00;;;;;;;8.52;4.60;;;;;;;-4.41;83.28;92329.38;5031202;28;20041;-90
2022/01/08 00:30:36;;;;;;;;;;;;;;;;;;;;;
2022/01/08 00:33:17;;;;;;;12.95;5.45;;;;;;;-4.73;83.46;92279.09;5033822;28;20040;-91
2022/01/08 00:35:45;;;;;;;10.05;5.75;;;;;;;-4.67;83.78;92289.28;5030732;28;20056;-89
2022/01/08 00:38:16;;;;;;;9.07;4.72;;;;;;;-4.88;83.74;92244.34;4997591;28;20033;-89
2022/01/08 00:41:07;;;;;;;;;;;;;;;;;;;;;
2022/01/08 00:43:40;;;;;;;7.85;4.68;;;;;;;-4.87;83.12;92238.25;5043666;28;20091;-91
2022/01/08 00:46:25;;;;;;;7.38;4.28;;;;;;;-4.93;83.22;92233.13;5031679;28;20129;-90
2022/01/08 00:49:01;;;;;;;10.43;4.90;;;;;;;-4.65;83.99;92279.66;5016326;28;20041;-90
2022/01/08 00:51:32;;;;;;;12.05;5.28;;;;;;;-4.60;84.06;92284.97;5015620;28;20045;-90
2022/01/08 00:54:15;;;;;;;11.60;5.38;;;;;;;-4.84;84.15;92240.41;5001587;28;20076;-90
2022/01/08 00:56:46;;;;;;;11.52;5.53;;;;;;;-4.90;84.35;92228.44;5032149;28;20041;-90
2022/01/08 00:59:32;;;;;;;9.88;5.53;;;;;;;-4.92;84.90;92217.63;5000589;28;20056;-90
2022/01/08 01:02:06;;;;;;;10.32;5.22;;;;;;;-4.56;85.14;92272.59;4997347;28;20057;-90
2022/01/08 01:04:38;;;;;;;9.00;5.47;;;;;;;-4.93;84.75;92218.63;4980612;28;20042;-89
2022/01/08 01:07:17;;;;;;;9.02;5.32;;;;;;;-4.82;84.81;92245.31;4998114;28;20037;-91
2022/01/08 01:09:45;;;;;;;11.18;6.05;;;;;;;-4.46;84.61;92290.06;5029453;28;20121;-90
2022/01/08 01:12:13;;;;;;;11.13;6.63;;;;;;;-4.75;84.03;92240.19;5006296;28;20033;-90
2022/01/08 01:14:41;;;;;;;10.27;6.00;;;;;;;-5.00;84.14;92197.41;5012492;28;20034;-90
2022/01/08 01:17:27;;;;;;;9.48;5.75;;;;;;;-4.97;84.77;92207.25;5015348;28;20057;-90
2022/01/08 01:19:55;;;;;;;9.35;5.57;;;;;;;-4.99;84.95;92191.31;5031666;28;20081;-90
2022/01/08 01:22:30;;;;;;;12.70;6.32;;;;;;;-5.02;85.76;92187.41;5022481;28;20119;-90
2022/01/08 01:25:05;;;;;;;11.35;6.03;;;;;;;-5.04;85.25;92189.38;5028425;28;20029;-91
2022/01/08 01:30:25;;;;;;;10.43;5.28;;;;;;;-5.10;84.83;92186.81;5008215;28;20053;-89
2022/01/08 01:41:12;;;;;;;6.28;3.50;;;;;;;-4.53;84.03;92258.63;5032553;28;20490;-90
2022/01/08 01:47:29;;;;;;;5.75;3.45;;;;;;;-4.65;82.79;92255.91;5031834;28;20048;-90
2022/01/08 01:50:08;;;;;;;5.15;3.33;;;;;;;-5.08;82.73;92180.53;5029477;28;20064;-90
2022/01/08 01:52:49;;;;;;;7.95;3.53;;;;;;;-4.85;82.58;92204.84;5016678;28;20515;-90
2022/01/08 01:55:27;;;;;;;5.80;3.25;;;;;;;-5.03;82.27;92172.28;5016716;28;20034;-91
2022/01/08 01:58:00;;;;;;;11.45;4.35;;;;;;;-4.73;82.99;92233.91;5015107;28;20099;-90
2022/01/08 02:00:37;;;;;;;6.30;3.58;;;;;;;-5.11;82.90;92165.63;5014266;28;20044;-90
2022/01/08 02:03:13;;;;;;;7.72;3.97;;;;;;;-5.10;82.34;92172.28;5035841;28;20116;-90
2022/01/08 02:05:49;;;;;;;6.30;3.42;;;;;;;-4.88;82.23;92218.81;5031675;28;20486;-90
2022/01/08 02:08:24;;;;;;;6.45;3.05;;;;;;;-5.13;82.80;92182.91;5000912;28;20094;-90
2022/01/08 02:10:53;;;;;;;5.32;3.20;;;;;;;-5.18;82.52;92169.94;5014919;28;20064;-91
2022/01/08 02:13:49;;;;;;;5.45;3.00;;;;;;;-5.07;82.22;92191.53;5023633;28;20021;-91
2022/01/08 02:16:18;;;;;;;5.20;2.88;;;;;;;-5.03;81.71;92173.06;5035464;28;20083;-90
2022/01/08 02:18:50;;;;;;;6.75;3.28;;;;;;;-4.84;81.55;92186.78;5016656;28;20037;-91
2022/01/08 02:21:32;;;;;;;6.00;3.67;;;;;;;-4.77;82.01;92193.63;5029472;28;20067;-90
2022/01/08 02:24:00;;;;;;;5.20;3.00;;;;;;;-4.91;81.79;92165.59;5016229;28;20136;-91
2022/01/08 02:26:46;;;;;;;6.28;3.25;;;;;;;-4.62;81.53;92187.31;5014673;28;20534;-90
2022/01/08 02:29:15;;;;;;;5.45;2.80;;;;;;;-4.86;81.70;92136.91;5017742;28;20132;-91
2022/01/08 02:32:07;;;;;;;5.60;3.15;;;;;;;-4.83;81.54;92142.38;5048380;28;20562;-89
2022/01/08 02:34:44;;;;;;;6.88;3.95;;;;;;;-4.78;82.04;92153.75;5029593;28;20056;-90
2022/01/08 02:37:18;;;;;;;6.80;3.60;;;;;;;-4.62;81.91;92176.31;5036354;28;20033;-90
2022/01/08 02:39:52;;;;;;;5.88;3.47;;;;;;;-4.96;81.58;92121.22;5015405;28;20305;-89
2022/01/08 02:42:36;;;;;;;8.95;3.65;;;;;;;-4.99;82.88;92122.41;5000962;28;20052;-90
2022/01/08 02:45:09;;;;;;;7.38;4.13;;;;;;;-4.69;83.09;92178.09;5008413;28;20060;-91
2022/01/08 02:47:48;;;;;;;7.15;3.58;;;;;;;-4.71;82.01;92177.50;5039736;28;20029;-89
2022/01/08 02:50:25;;;;;;;8.65;4.07;;;;;;;-4.97;82.30;92140.84;5014187;28;20049;-90
2022/01/08 02:53:08;;;;;;;;;;;;;;;;;;;;;
2022/01/08 02:55:36;;;;;;;8.55;3.78;;;;;;;-4.45;82.41;92209.88;5046749;28;20032;-90
2022/01/08 02:58:08;;;;;;;8.23;3.80;;;;;;;-4.92;82.64;92125.72;5017665;28;20025;-91
2022/01/08 03:00:46;;;;;;;9.88;3.92;;;;;;;-4.79;83.15;92131.78;5015496;28;20102;-90
2022/01/08 03:03:18;;;;;;;7.90;4.18;;;;;;;-4.64;82.80;92147.63;5018083;28;20643;-90
2022/01/08 03:06:01;;;;;;;5.60;3.35;;;;;;;-4.57;82.60;92140.75;5017773;28;20075;-91
2022/01/08 03:08:39;;;;;;;6.72;3.58;;;;;;;-4.20;82.83;92189.53;5018154;28;20045;-89
2022/01/08 03:11:07;;;;;;;7.90;3.90;;;;;;;-4.49;82.42;92132.81;5032552;28;20033;-91
2022/01/08 03:13:38;;;;;;;7.05;3.92;;;;;;;-4.42;81.92;92125.91;5017429;28;20068;-90
2022/01/08 03:16:08;;;;;;;6.68;3.85;;;;;;;-4.40;82.57;92125.72;5016569;28;20041;-89
2022/01/08 03:18:39;;;;;;;6.20;3.72;;;;;;;-4.45;82.50;92105.88;5036435;28;20098;-90
2022/01/08 03:21:46;;;;;;;;;;;;;;;;;;;;;
2022/01/08 03:24:28;;;;;;;6.65;3.83;;;;;;;-4.00;82.43;92151.06;5055635;28;20060;-91
2022/01/08 03:26:57;;;;;;;9.18;4.07;;;;;;;-4.29;81.91;92093.63;5037887;28;20033;-90
2022/01/08 03:29:40;;;;;;;9.45;4.40;;;;;;;-4.01;82.34;92134.97;5038471;28;20039;-89
2022/01/08 03:32:17;;;;;;;7.65;4.03;;;;;;;-4.21;82.87;92091.59;5007918;28;20055;-91
2022/01/08 03:34:53;;;;;;;8.13;4.20;;;;;;;-4.22;82.43;92071.34;5021031;28;20035;-91
2022/01/08 03:37:31;;;;;;;6.85;3.80;;;;;;;-4.21;82.24;92067.78;5037266;28;20048;-90
2022/01/08 03:40:02;;;;;;;9.93;4.40;;;;;;;-4.05;83.65;92067.31;5021140;28;20135;-90
2022/01/08 03:42:33;;;;;;;13.13;5.88;;;;;;;-3.94;83.20;92106.78;5015006;28;20045;-90
2022/01/08 03:45:19;;;;;;;9.55;5.07;;;;;;;-4.34;83.29;92045.69;5037731;28;20041;-90
2022/01/08 03:50:31;;;;;;;12.15;5.00;;;;;;;-4.39;83.33;92065.94;5001181;28;20056;-91
2022/01/08 03:53:18;;;;;;;8.27;5.13;;;;;;;-4.18;83.11;92105.75;5019202;28;20148;-91
2022/01/08 03:55:54;;;;;;;9.18;4.88;;;;;;;-4.57;82.99;92048.78;5021019;28;20044;-90
2022/01/08 03:58:25;;;;;;;7.43;4.43;;;;;;;-4.68;83.28;92041.75;5020833;28;20052;-89
2022/01/08 04:01:10;;;;;;;9.70;4.68;;;;;;;-4.44;83.21;92087.00;5032678;28;20046;-91
2022/01/08 04:04:02;;;;;;;9.45;4.32;;;;;;;-4.74;83.24;92038.22;5009379;28;20045;-90
2022/01/08 04:06:43;;;;;;;;;;;;;;;;;;;;;
2022/01/08 04:09:26;;;;;;;6.28;3.65;;;;;;;-4.66;83.05;92037.19;5017007;28;20438;-89
2022/01/08 04:12:30;;;;;;;7.47;4.10;;;;;;;-4.35;82.52;92071.44;4993740;28;20140;-90
2022/01/08 04:15:04;;;;;;;8.27;4.70;;;;;;;-4.33;82.41;92066.91;5017099;28;20045;-90
2022/01/08 04:18:05;;;;;;;5.87;3.97;;;;;;;-4.25;84.00;92066.66;5017306;28;20037;-90
2022/01/08 04:21:11;;;;;;;6.75;3.65;;;;;;;-4.27;83.11;92043.09;5034820;28;20375;-89
2022/01/08 04:23:50;;;;;;;;;;;;;;;;;;;;;
2022/01/08 04:26:26;;;;;;;6.72;4.03;;;;;;;-4.08;82.60;92077.94;5001947;28;20037;-90
2022/01/08 04:29:15;;;;;;;;;;;;;;;;;;;;;
2022/01/08 04:31:54;;;;;;;9.77;4.45;;;;;;;-4.38;82.56;92033.53;5031118;28;20502;-90
2022/01/08 04:34:35;;;;;;;;;;;;;;;;;;;;;
2022/01/08 04:37:13;;;;;;;7.40;4.88;;;;;;;-4.40;82.25;92028.63;5037191;28;20079;-91
2022/01/08 04:40:00;;;;;;;9.50;4.25;;;;;;;-4.38;81.48;92031.75;5013292;28;20042;-90
2022/01/08 04:42:38;;;;;;;6.65;3.88;;;;;;;-4.38;81.16;92030.97;5035568;28;20490;-90
2022/01/08 04:45:13;;;;;;;7.03;3.58;;;;;;;-4.32;81.25;92042.91;5001506;28;20536;-91
2022/01/08 04:47:44;;;;;;;6.95;4.10;;;;;;;-4.31;81.02;92036.81;5033320;28;20434;-91
2022/01/08 04:50:13;;;;;;;7.45;4.38;;;;;;;-4.31;81.57;92041.94;5033102;28;20025;-90
2022/01/08 04:53:00;;;;;;;6.13;3.85;;;;;;;-4.25;81.66;92043.66;5032552;28;20037;-90
2022/01/08 04:55:26;;;;;;;9.38;4.45;;;;;;;-3.97;81.62;92086.72;5016385;28;20108;-90
2022/01/08 04:58:05;;;;;;;8.70;4.07;;;;;;;-4.17;81.50;92051.06;5016645;28;20057;-89
2022/01/08 05:00:42;;;;;;;15.10;5.82;;;;;;;-3.67;81.05;92122.72;4997435;28;20037;-90
2022/01/08 05:03:27;;;;;;;8.80;4.43;;;;;;;-4.00;80.79;92064.91;5019478;28;20094;-90
2022/01/08 05:06:12;;;;;;;7.97;4.60;;;;;;;-4.00;81.02;92064.13;5007573;28;20037;-90
2022/01/08 05:08:40;;;;;;;7.43;4.55;;;;;;;-3.94;81.56;92072.75;5019553;28;20038;-90
2022/01/08 05:11:33;;;;;;;10.13;4.72;;;;;;;-3.90;80.57;92091.78;5023469;28;20071;-90
2022/01/08 05:14:09;;;;;;;8.48;4.25;;;;;;;-3.75;80.40;92107.63;5012140;28;20033;-90
2022/01/08 05:16:45;;;;;;;8.38;4.40;;;;;;;-4.03;80.21;92065.34;5002875;28;20041;-91
2022/01/08 05:19:36;;;;;;;;;;;;;;;;;;;;;
2022/01/08 05:22:26;;;;;;;6.80;4.18;;;;;;;-3.75;79.98;92099.19;5050618;28;20040;-90
2022/01/08 05:25:00;;;;;;;7.65;4.25;;;;;;;-4.16;79.97;92047.53;5018839;28;20041;-89
2022/01/08 05:27:41;;;;;;;7.57;4.25;;;;;;;-3.74;80.94;92103.28;5021554;28;20502;-90
2022/01/08 05:30:32;;;;;;;10.43;4.40;;;;;;;-4.12;82.89;92055.56;5030346;28;20095;-90
2022/01/08 05:33:05;;;;;;;10.05;5.53;;;;;;;-3.85;83.83;92102.19;4999859;28;20045;-92
2022/01/08 05:35:40;;;;;;;9.85;5.25;;;;;;;-4.35;83.86;92038.22;5034602;28;20124;-89
2022/01/08 05:38:14;;;;;;;8.02;4.72;;;;;;;-4.34;82.20;92047.47;5032028;28;20033;-90
2022/01/08 05:41:00;;;;;;;7.32;4.22;;;;;;;-4.35;81.89;92066.31;5000318;28;20061;-90
2022/01/08 05:43:41;;;;;;;7.05;4.00;;;;;;;-4.21;81.58;92103.59;5032703;28;20047;-89
2022/01/08 05:46:34;;;;;;;6.75;3.90;;;;;;;-4.58;81.46;92066.84;5017712;28;20079;-90
2022/01/08 05:49:04;;;;;;;6.45;3.47;;;;;;;-4.26;79.89;92113.66;5024079;28;20038;-91
2022/01/08 05:51:51;;;;;;;5.70;3.13;;;;;;;-4.59;79.52;92076.28;5015270;28;20040;-90
2022/01/08 05:54:29;;;;;;;5.93;3.42;;;;;;;-4.14;79.50;92150.38;5025770;28;20032;-89
2022/01/08 05:57:15;;;;;;;5.30;2.88;;;;;;;-4.67;79.52;92079.84;5018868;28;20033;-89
2022/01/08 05:59:48;;;;;;;6.20;3.30;;;;;;;-4.49;78.61;92114.94;5018241;28;20125;-90
2022/01/08 06:02:27;;;;;;;6.13;2.90;;;;;;;-4.57;79.23;92112.63;5027471;28;20057;-90
2022/01/08 06:04:58;;;;;;;6.00;3.20;;;;;;;-4.47;79.35;92148.75;5029924;28;20038;-90
2022/01/08 06:07:37;;;;;;;4.25;2.47;;;;;;;-4.44;79.02;92140.66;5031260;28;20060;-89
2022/01/08 06:10:25;;;;;;;4.97;2.40;;;;;;;-4.74;78.19;92085.97;5000104;28;20119;-90
2022/01/08 06:13:06;;;;;;;4.18;2.50;;;;;;;-4.78;77.38;92093.25;5024853;28;20040;-89
2022/01/08 06:16:01;;;;;;;5.10;2.33;;;;;;;-4.77;77.18;92078.72;5013523;28;20037;-90
2022/01/08 06:18:45;;;;;;;4.60;2.58;;;;;;;-4.47;77.54;92135.97;5016479;28;20574;-90
2022/01/08 06:21:16;;;;;;;4.72;2.83;;;;;;;-4.78;77.54;92097.59;4994657;28;20115;-90
2022/01/08 06:24:03;;;;;;;;;;;;;;;;;;;;;
2022/01/08 06:26:42;;;;;;;6.32;2.65;;;;;;;-4.60;77.00;92141.91;5047577;28;20042;-91
2022/01/08 06:29:22;;;;;;;5.03;2.50;;;;;;;-4.92;77.20;92095.06;5029343;28;20124;-92
2022/01/08 06:32:04;;;;;;;4.93;2.40;;;;;;;-4.82;76.88;92110.75;4999846;28;20065;-89
2022/01/08 06:34:37;;;;;;;5.80;2.58;;;;;;;-4.84;77.00;92107.63;5031193;28;20041;-92
2022/01/08 06:37:31;;;;;;;4.20;2.42;;;;;;;-4.88;76.50;92098.81;5019872;28;20068;-88
2022/01/08 06:40:23;;;;;;;4.70;2.40;;;;;;;-4.95;76.43;92095.50;5031567;28;20032;-88
2022/01/08 06:42:57;;;;;;;;;;;;;;;-4.51;76.02;92165.47;4994311;28;20041;-88
2022/01/08 06:45:38;;;;;;;3.28;2.10;;;;;;;-5.08;76.48;92087.88;5029929;28;20381;-88
2022/01/08 06:48:17;;;;;;;4.38;2.28;;;;;;;-4.82;76.13;92132.94;5031880;28;20050;-90
2022/01/08 06:50:48;;;;;;;3.83;2.45;;;;;;;-4.82;76.39;92146.53;5026584;28;20042;-91
2022/01/08 06:53:31;;;;;;;5.18;2.63;;;;;;;-4.76;76.66;92141.59;5024436;28;20120;-92
2022/01/08 06:56:07;;;;;;;6.75;3.50;;;;;;;-4.79;77.45;92126.69;5018002;28;20125;-88
2022/01/08 06:58:49;;;;;;;8.00;3.60;;;;;;;-4.94;77.60;92091.16;4998088;28;20042;-93
2022/01/08 07:01:21;;;;;;;5.53;3.13;;;;;;;-4.58;78.21;92138.38;4995414;28;20062;-90
2022/01/08 07:03:57;;;;;;;;;;;;;;;;;;;;;
2022/01/08 07:06:23;;;;;;;5.60;2.88;;;;;;;-4.86;76.87;92080.72;5013600;28;20049;-89
2022/01/08 07:08:52;;;;;;;4.57;2.40;;;;;;;-4.38;76.46;92163.84;5008137;28;20029;-89
2022/01/08 07:11:18;;;;;;;4.43;2.38;;;;;;;-4.43;76.01;92152.47;5029028;28;20042;-89
2022/01/08 07:13:49;;;;;;;3.70;2.17;;;;;;;-4.91;75.20;92076.22;4996477;28;20042;-89
2022/01/08 07:16:15;;;;;;;4.57;2.40;;;;;;;-4.83;74.66;92090.53;5013837;28;20038;-89
2022/01/08 07:18:44;;;;;;;4.88;2.70;;;;;;;-4.56;74.46;92124.41;5029170;28;20076;-90
2022/01/08 07:21:16;;;;;;;3.72;2.30;;;;;;;-4.75;74.49;92086.94;5026642;28;20038;-89
2022/01/08 07:23:49;;;;;;;6.25;2.60;;;;;;;-4.67;74.53;92089.28;5001530;28;20118;-90
2022/01/08 07:26:15;;;;;;;8.55;2.75;;;;;;;-4.33;74.73;92141.00;5015978;28;20499;-90
2022/01/08 07:28:46;;;;;;;4.90;2.75;;;;;;;-4.47;74.58;92074.66;4996577;28;20515;-89
2022/01/08 07:31:14;;;;;;;5.40;2.67;;;;;;;-1.96;69.09;92161.38;5013622;28;20038;-90
2022/01/08 07:33:49;;;;;;;5.72;2.70;;;;;;;0.60;59.84;92125.50;5007767;28;20057;-90
2022/01/08 07:36:18;;;;;;;4.95;2.65;;;;;;;2.41;54.18;92100.88;5012620;28;20061;-90
2022/01/08 07:39:03;;;;;;;5.13;2.75;;;;;;;4.67;49.12;92124.22;5013738;28;20057;-92
2022/01/08 07:41:42;;;;;;;3.50;1.92;;;;;;;5.81;42.37;92113.44;5016882;28;20041;-93
2022/01/08 07:44:27;;;;;;;3.60;2.17;;;;;;;6.43;40.83;92154.78;5015459;28;20095;-92
2022/01/08 07:47:07;;;;;;;;;;;;;;;;;;;;;
2022/01/08 07:50:10;;;;;;;;;;;;;;;;;;;;;
2022/01/08 07:53:18;;;;;;;;;;;;;;;;;;;;;
2022/01/08 07:56:28;;;;;;;;;;;;;;;;;;;;;
2022/01/08 08:21:23;;;;;;;;;;;;;;;16.45;23.84;92147.03;4970018;28;20043;-91
2022/01/08 08:26:57;;;;;;;4.43;2.50;;;;;;;17.70;21.39;92133.25;5035455;28;19917;-91
2022/01/08 08:33:26;;;;;;;5.70;2.63;;;;;;;18.77;20.49;92124.50;5016851;28;20099;-91
2022/01/08 08:35:54;;;;;;;4.38;2.30;;;;;;;19.29;19.63;92118.00;5001235;28;20045;-92
2022/01/08 08:38:24;;;;;;;3.83;1.90;;;;;;;20.25;18.56;92133.47;5014987;28;20026;-92
2022/01/08 08:45:05;;;;;;;5.22;2.30;;;;;;;20.37;18.23;92149.97;5016740;28;20100;-91
2022/01/08 08:47:31;;;;;;;4.75;2.40;;;;;;;20.09;18.16;92130.91;5014676;28;20084;-91
2022/01/08 08:49:58;;;;;;;4.47;2.22;;;;;;;20.69;17.47;92135.69;4998541;28;20033;-91
2022/01/08 08:52:24;;;;;;;5.47;2.00;;;;;;;19.98;17.77;92159.19;5014868;28;20045;-91
2022/01/08 08:54:51;;;;;;;4.97;1.90;;;;;;;20.59;17.76;92145.81;5017713;28;20042;-90
2022/01/08 08:57:19;;;;;;;3.58;2.00;;;;;;;20.58;17.53;92173.53;5016644;28;20037;-90
2022/01/08 08:59:55;;;;;;;3.40;1.80;;;;;;;20.22;17.33;92134.16;5015717;28;20046;-91
2022/01/08 09:02:25;;;;;;;3.75;1.90;;;;;;;20.58;16.95;92160.22;5015138;28;20050;-91
2022/01/08 09:05:10;;;;;;;3.88;1.70;;;;;;;20.27;17.70;92169.19;5015767;28;20037;-91
2022/01/08 09:07:46;;;;;;;2.53;1.50;;;;;;;19.13;17.98;92151.81;5016062;28;20061;-91
2022/01/08 09:10:14;;;;;;;3.85;1.60;;;;;;;16.96;19.68;92128.19;5017522;28;20042;-90
2022/01/08 09:13:03;;;;;;;4.45;1.52;;;;;;;15.19;22.58;92168.44;5000409;28;20104;-91
2022/01/08 09:15:41;;;;;;;;;;;;;;;;;;;;;
2022/01/08 09:18:12;;;;;;;2.50;1.40;;;;;;;14.34;24.38;92135.16;5015687;28;20049;-90
2022/01/08 09:20:50;;;;;;;3.63;1.60;;;;;;;15.46;23.29;92179.56;5016224;28;20050;-90
2022/01/08 09:26:47;;;;;;;10.57;5.45;;;;;;;15.43;26.57;92127.47;5015772;28;20107;-91
2022/01/08 09:29:16;;;;;;;9.13;5.22;;;;;;;14.78;26.39;92114.63;5013761;28;20091;-91
2022/01/08 09:35:39;;;;;;;9.32;6.20;;;;;;;13.49;29.75;92169.31;5015580;28;20048;-90
2022/01/08 09:38:04;;;;;;;10.20;5.45;;;;;;;12.81;30.92;92192.56;5013843;28;20042;-91
2022/01/08 09:40:30;;;;;;;8.00;4.40;;;;;;;12.46;31.00;92182.00;5014152;28;20066;-90
2022/01/08 09:42:56;;;;;;;6.97;4.13;;;;;;;12.78;30.24;92180.84;5013761;28;20557;-91
2022/01/08 09:45:21;;;;;;;6.63;3.35;;;;;;;12.52;28.61;92175.53;4997247;28;20525;-90
2022/01/08 09:47:47;;;;;;;6.35;3.67;;;;;;;12.39;28.80;92158.81;5029897;28;20042;-90
2022/01/08 09:50:13;;;;;;;5.95;3.38;;;;;;;12.26;29.13;92170.19;5013724;28;20073;-90
2022/01/08 09:52:41;;;;;;;8.45;5.10;;;;;;;12.90;31.13;92191.53;5013346;28;20046;-90
2022/01/08 09:55:08;;;;;;;8.23;4.55;;;;;;;12.89;30.52;92183.94;5013897;28;20077;-90
2022/01/08 09:57:33;;;;;;;7.13;4.18;;;;;;;12.60;30.21;92177.41;5014905;28;20042;-90
2022/01/08 09:59:59;;;;;;;7.10;3.60;;;;;;;13.24;28.95;92178.69;5014661;28;20041;-91
2022/01/08 10:02:25;;;;;;;5.32;3.10;;;;;;;11.32;30.76;92193.72;5006266;28;20446;-90
2022/01/08 10:04:52;;;;;;;8.27;4.32;;;;;;;10.21;35.23;92186.03;4995228;28;20038;-90
2022/01/08 10:07:26;;;;;;;9.30;4.80;;;;;;;11.30;34.47;92187.22;5010223;28;20038;-90
2022/01/08 10:10:15;;;;;;;8.43;4.72;;;;;;;11.51;34.21;92177.81;4993764;28;20038;-91
2022/01/08 10:12:50;;;;;;;5.85;2.90;;;;;;;11.75;30.48;92190.59;5009814;28;20046;-90
2022/01/08 10:18:09;;;;;;;7.35;3.65;;;;;;;11.85;31.47;92172.00;5010281;28;20125;-90
2022/01/08 10:20:40;;;;;;;8.27;3.65;;;;;;;11.40;32.29;92189.63;4977467;28;20543;-91
2022/01/08 10:23:24;;;;;;;8.75;5.22;;;;;;;10.02;36.12;92174.91;5010037;28;20040;-91
2022/01/08 10:26:06;;;;;;;5.20;2.70;;;;;;;11.19;31.23;92189.28;5012943;28;20038;-90
2022/01/08 10:28:58;;;;;;;4.15;2.38;;;;;;;12.23;27.34;92182.06;5013739;28;20072;-90
2022/01/08 10:31:30;;;;;;;2.72;1.65;;;;;;;12.57;25.04;92183.28;5013720;28;20042;-90
2022/01/08 10:34:01;;;;;;;2.25;1.35;;;;;;;12.82;24.86;92186.25;4996722;28;20076;-91
2022/01/08 10:36:32;;;;;;;4.37;1.50;;;;;;;12.33;25.77;92181.03;4996623;28;20041;-91
2022/01/08 10:39:08;;;;;;;7.10;4.50;;;;;;;10.83;32.41;92158.66;4996227;28;20044;-91
2022/01/08 10:41:42;;;;;;;6.15;3.38;;;;;;;10.45;31.99;92163.38;5012992;28;20041;-90
2022/01/08 10:44:23;;;;;;;6.65;3.70;;;;;;;9.35;32.83;92144.66;5012982;28;20034;-90
2022/01/08 10:47:01;;;;;;;;;;;;;;;;;;;;;
2022/01/08 10:50:02;;;;;;;7.85;3.40;;;;;;;8.72;35.18;92186.84;5013521;28;20054;-90
2022/01/08 10:52:41;;;;;;;9.35;3.85;;;;;;;8.72;35.23;92114.53;5027653;28;20046;-90
2022/01/08 10:55:49;;;;;;;6.00;3.33;;;;;;;9.69;33.78;92180.16;5027927;28;20402;-90
2022/01/08 10:58:40;;;;;;;6.57;3.72;;;;;;;7.60;36.53;92119.25;4995208;28;20045;-90
2022/01/08 11:01:09;;;;;;;6.75;3.30;;;;;;;7.72;36.92;92114.47;5013288;28;20045;-89
2022/01/08 11:03:43;;;;;;;6.22;3.40;;;;;;;7.99;35.93;92131.34;4996857;28;20053;-89
2022/01/08 11:06:11;;;;;;;5.18;2.20;;;;;;;8.36;31.53;92103.03;5012742;28;20079;-89
2022/01/08 11:08:39;;;;;;;5.07;2.35;;;;;;;8.65;31.57;92118.59;5012613;28;20037;-90
2022/01/08 11:11:14;;;;;;;6.10;3.28;;;;;;;8.05;35.54;92106.00;4998499;28;20042;-91
2022/01/08 11:17:49;;;;;;;6.78;3.70;;;;;;;7.27;39.26;92176.34;5050505;28;20103;-89
2022/01/08 11:20:17;;;;;;;7.38;4.18;;;;;;;7.76;37.88;92119.88;5038801;28;20043;-89
2022/01/08 11:22:47;;;;;;;9.35;4.85;;;;;;;7.70;40.72;92136.63;5045930;28;20041;-89
2022/01/08 11:25:17;;;;;;;5.95;3.67;;;;;;;7.75;37.67;92169.69;5047122;28;20034;-89
2022/01/08 11:27:46;;;;;;;4.32;2.33;;;;;;;7.60;34.23;92150.53;5030866;28;20033;-88
2022/01/08 11:30:24;;;;;;;6.15;3.42;;;;;;;7.17;38.33;92162.63;5061021;28;20087;-89
2022/01/08 11:32:52;;;;;;;7.90;4.22;;;;;;;6.20;46.17;92159.56;5049700;28;20037;-89
2022/01/08 11:35:19;;;;;;;8.48;5.15;;;;;;;6.48;44.02;92149.53;5048461;28;20032;-88
2022/01/08 11:37:49;;;;;;;8.05;4.70;;;;;;;6.53;43.44;92115.72;5026536;28;20094;-89
2022/01/08 11:40:22;;;;;;;2.60;1.40;;;;;;;6.35;31.92;92095.53;5026885;28;20040;-89
2022/01/08 11:43:07;;;;;;;2.47;1.55;;;;;;;6.63;40.51;92068.81;5048593;28;20044;-88
2022/01/08 11:46:04;;;;;;;4.57;2.50;;;;;;;6.29;42.23;92115.59;5048872;28;20047;-91
2022/01/08 11:48:53;;;;;;;7.80;3.53;;;;;;;6.88;39.09;92054.84;5031365;28;20032;-89
2022/01/08 11:51:33;;;;;;;5.00;2.67;;;;;;;8.05;33.59;92070.28;5044291;28;20052;-88
2022/01/08 11:54:46;;;;;;;6.32;3.15;;;;;;;8.70;32.33;92121.88;5029972;28;20059;-90
2022/01/08 11:57:53;;;;;;;;;;;;;;;;;;;;;
2022/01/08 12:01:00;;;;;;;6.22;2.67;;;;;;;6.48;40.31;92037.72;5052521;28;20033;-88
2022/01/08 12:03:40;;;;;;;5.50;2.70;;;;;;;7.25;35.32;92040.47;5027348;28;20111;-88
2022/01/08 12:06:29;;;;;;;4.55;2.03;;;;;;;8.39;32.76;92095.41;5042446;28;20055;-89
2022/01/08 12:09:35;;;;;;;6.00;2.00;;;;;;;8.07;31.81;92077.84;5036687;28;20080;-88
2022/01/08 12:12:25;;;;;;;;;;;;;;;;;;;;;
2022/01/08 12:15:15;;;;;;;4.78;2.47;;;;;;;7.55;35.56;92003.94;5031494;28;20127;-89
2022/01/08 12:18:27;;;;;;;3.92;1.90;;;;;;;7.27;31.80;92032.34;5013016;28;20049;-89
2022/01/08 12:21:26;;;;;;;4.87;2.50;;;;;;;7.27;34.78;92064.41;5047967;28;20829;-90
2022/01/08 12:27:39;;;;;;;5.13;2.58;;;;;;;6.96;36.00;91982.44;5051481;28;20041;-88
2022/01/08 12:30:18;;;;;;;6.20;2.40;;;;;;;7.34;33.60;92045.03;5028319;28;20041;-89
2022/01/08 12:32:51;;;;;;;1.55;1.23;;;;;;;6.96;34.72;92024.06;5032585;28;20467;-89
2022/01/08 12:40:10;;;;;;;4.47;2.40;;;;;;;7.81;34.70;92018.19;5042619;28;20040;-89
2022/01/08 12:43:43;;;;;;;5.00;2.70;;;;;;;7.13;32.66;91977.56;5057175;28;20396;-89
2022/01/08 12:46:52;;;;;;;3.30;1.75;;;;;;;6.63;31.40;91948.41;5054436;28;20120;-89
2022/01/08 12:50:23;;;;;;;2.78;1.38;;;;;;;7.06;27.02;92010.97;5032083;28;20482;-89
2022/01/08 12:54:06;;;;;;;2.05;1.20;;;;;;;7.35;26.97;91956.25;5036647;28;20057;-89
2022/01/08 12:57:22;;;;;;;;;;;;;;;;;;;;;
2022/01/08 13:03:46;;;;;;;2.40;1.45;;;;;;;7.55;27.74;91929.19;4983582;28;20045;-88
2022/01/08 13:06:16;;;;;;;3.90;1.80;;;;;;;8.99;26.77;91987.03;5015422;28;20037;-89
2022/01/08 13:09:12;;;;;;;3.72;1.88;;;;;;;8.41;23.47;91942.03;5031544;28;20119;-89
2022/01/08 13:11:53;;;;;;;2.28;1.33;;;;;;;8.30;25.92;91940.63;5016113;28;20093;-90
2022/01/08 13:14:30;;;;;;;3.17;1.50;;;;;;;8.07;25.65;91905.78;4997337;28;20045;-89
2022/01/08 13:17:09;;;;;;;3.13;1.60;;;;;;;8.39;25.71;91917.28;5027988;28;20048;-89
2022/01/08 13:20:02;;;;;;;3.50;1.88;;;;;;;8.11;27.32;91920.56;5001573;28;20045;-89
2022/01/08 13:23:09;;;;;;;2.35;1.48;;;;;;;7.81;26.11;91963.47;5030989;28;20491;-89
2022/01/08 13:26:28;;;;;;;3.22;1.65;;;;;;;7.92;26.07;91904.97;5016715;28;20078;-89
2022/01/08 13:32:36;;;;;;;3.88;1.90;;;;;;;7.37;26.40;91888.28;4999527;28;20120;-89
2022/01/08 13:36:41;;;;;;;;;;;;;;;;;;;;;
2022/01/08 13:39:27;;;;;;;3.08;1.70;;;;;;;7.40;28.13;91929.38;4992719;28;20053;-89
2022/01/08 13:42:54;;;;;;;;;;;;;;;;;;;;;
2022/01/08 13:45:47;;;;;;;;;;;;;;;;;;;;;
2022/01/08 13:49:19;;;;;;;3.22;1.80;;;;;;;7.63;28.02;91943.41;5031184;28;20100;-89
2022/01/08 13:52:26;;;;;;;;;;;;;;;;;;;;;
2022/01/08 13:55:37;;;;;;;2.60;1.40;;;;;;;7.87;26.92;91941.50;5029962;28;20047;-89
2022/01/08 14:01:58;;;;;;;2.72;1.27;;;;;;;6.71;26.05;91867.19;5048207;28;20044;-89
2022/01/08 14:04:36;;;;;;;;;;;;;;;;;;;;;
2022/01/08 14:07:15;;;;;;;;;;;;;;;;;;;;;
2022/01/08 14:10:12;;;;;;;1.67;1.05;;;;;;;6.64;26.26;91874.53;5070141;28;20560;-88
2022/01/08 14:13:11;;;;;;;;;;;;;;;;;;;;;
2022/01/08 14:16:00;;;;;;;2.33;1.25;;;;;;;7.22;27.54;91910.81;5053381;28;20032;-89
2022/01/08 14:18:37;;;;;;;2.90;1.50;;;;;;;6.75;28.53;91868.16;5023370;28;20516;-87
2022/01/08 15:31:04;;;;;;;;;;;;;;;;;;;;;
2022/01/08 15:34:00;;;;;;;;;;;;;;;;;;;;;
2022/01/08 15:36:34;;;;;;;8.20;3.00;;;;;;;3.63;43.64;91934.47;5080006;28;20067;-90
2022/01/08 15:39:21;;;;;;;;;;;;;;;;;;;;;
2022/01/08 15:41:52;;;;;;;7.18;2.90;;;;;;;2.93;41.29;91875.31;5091269;28;20040;-87
2022/01/08 15:44:32;;;;;;;5.63;2.40;;;;;;;2.99;38.74;91884.63;5086782;28;20040;-87
2022/01/08 15:47:05;;;;;;;9.95;3.78;;;;;;;3.05;38.88;91912.06;5070539;28;20115;-87
2022/01/08 15:49:36;;;;;;;3.58;1.90;;;;;;;2.84;39.55;91890.53;5088776;28;20408;-87
2022/01/08 15:52:14;;;;;;;3.25;1.85;;;;;;;2.84;39.82;91903.47;5072353;28;20277;-88
2022/01/08 15:57:57;;;;;;;3.58;1.75;;;;;;;2.67;37.97;91877.78;5079710;28;20039;-88